createdAt,value
2018-10-06T00:01:13.665Z,7.23
2018-10-06T00:03:42.093Z,6.73
2018-10-06T00:06:10.502Z,6.13
2018-10-06T00:08:38.952Z,6.37
2018-10-06T00:11:07.403Z,6.23
2018-10-06T00:13:35.862Z,6.87
2018-10-06T00:16:04.308Z,6.07
2018-10-06T00:18:32.722Z,7.63
2018-10-06T00:21:01.108Z,6.20
2018-10-06T00:23:29.526Z,6.60
2018-10-06T00:25:57.962Z,6.50
2018-10-06T00:28:26.349Z,6.70
2018-10-06T00:30:54.791Z,6.30
2018-10-06T00:33:23.186Z,7.03
2018-10-06T00:35:51.609Z,6.17
2018-10-06T00:38:20.021Z,7.03
2018-10-06T00:40:48.443Z,7.10
2018-10-06T00:43:16.844Z,7.57
2018-10-06T00:45:45.274Z,8.50
2018-10-06T00:48:13.676Z,9.17
2018-10-06T00:50:42.114Z,6.07
2018-10-06T00:53:10.505Z,7.00
2018-10-06T00:55:38.933Z,6.37
2018-10-06T00:58:07.334Z,6.47
2018-10-06T01:00:35.757Z,8.50
2018-10-06T01:03:04.166Z,6.13
2018-10-06T01:05:32.626Z,6.63
2018-10-06T01:08:01.060Z,6.47
2018-10-06T01:10:29.494Z,6.60
2018-10-06T01:12:57.909Z,6.23
2018-10-06T01:15:26.330Z,6.37
2018-10-06T01:17:54.761Z,6.80
2018-10-06T01:20:23.162Z,6.97
2018-10-06T01:22:51.610Z,8.23
2018-10-06T01:25:20.034Z,8.23
2018-10-06T01:27:48.480Z,7.63
2018-10-06T01:30:16.893Z,6.47
2018-10-06T01:32:45.314Z,7.63
2018-10-06T01:35:13.717Z,7.07
2018-10-06T01:37:42.146Z,6.13
2018-10-06T01:40:18.549Z,9.40
2018-10-06T01:42:46.965Z,6.57
2018-10-06T01:45:15.376Z,6.87
2018-10-06T01:47:43.793Z,8.33
2018-10-06T01:50:12.195Z,7.47
2018-10-06T01:52:40.627Z,6.80
2018-10-06T01:55:09.034Z,8.90
2018-10-06T01:57:37.445Z,7.10
2018-10-06T02:00:05.890Z,6.77
2018-10-06T02:02:34.321Z,6.30
2018-10-06T02:05:02.890Z,8.00
2018-10-06T02:07:31.306Z,7.27
2018-10-06T02:09:59.690Z,6.13
2018-10-06T02:12:28.155Z,6.77
2018-10-06T02:14:56.546Z,6.83
2018-10-06T02:17:24.930Z,6.10
2018-10-06T02:19:53.346Z,6.33
2018-10-06T02:22:21.735Z,6.33
2018-10-06T02:24:50.158Z,7.17
2018-10-06T02:27:18.545Z,8.23
2018-10-06T02:29:46.965Z,9.30
2018-10-06T02:32:15.393Z,6.50
2018-10-06T02:34:43.813Z,6.43
2018-10-06T02:37:12.206Z,6.90
2018-10-06T02:39:42.030Z,8.00
2018-10-06T02:42:10.430Z,6.53
2018-10-06T02:44:38.862Z,6.43
2018-10-06T02:47:07.265Z,6.10
2018-10-06T02:49:35.674Z,7.77
2018-10-06T02:52:04.088Z,5.30
2018-10-06T02:54:32.509Z,5.73
2018-10-06T02:57:00.899Z,5.60
2018-10-06T02:59:29.318Z,6.20
2018-10-06T03:01:57.714Z,4.93
2018-10-06T03:04:26.155Z,5.77
2018-10-06T03:06:54.618Z,7.33
2018-10-06T03:09:23.009Z,6.27
2018-10-06T03:11:51.446Z,5.63
2018-10-06T03:14:19.890Z,4.83
2018-10-06T03:16:48.358Z,5.93
2018-10-06T03:19:16.791Z,5.67
2018-10-06T03:21:45.212Z,6.70
2018-10-06T03:24:13.602Z,5.33
2018-10-06T03:26:42.039Z,4.60
2018-10-06T03:29:10.421Z,4.53
2018-10-06T03:31:38.838Z,5.00
2018-10-06T03:34:07.362Z,4.37
2018-10-06T03:36:35.795Z,3.87
2018-10-06T03:39:04.903Z,4.03
2018-10-06T03:41:33.313Z,5.33
2018-10-06T03:44:02.038Z,4.80
2018-10-06T03:46:30.485Z,4.27
2018-10-06T03:48:58.878Z,3.63
2018-10-06T03:51:27.317Z,3.93
2018-10-06T03:53:55.765Z,3.70
2018-10-06T03:56:24.157Z,4.27
2018-10-06T03:58:52.658Z,3.67
2018-10-06T04:01:21.118Z,4.93
2018-10-06T04:03:49.528Z,3.60
2018-10-06T04:06:17.966Z,4.67
2018-10-06T04:08:46.421Z,4.40
2018-10-06T04:11:14.813Z,4.00
2018-10-06T04:13:43.270Z,3.07
2018-10-06T04:16:11.669Z,3.57
2018-10-06T04:18:40.109Z,5.63
2018-10-06T04:21:08.526Z,4.17
2018-10-06T04:23:36.957Z,3.53
2018-10-06T04:26:05.358Z,3.47
2018-10-06T04:28:33.806Z,3.20
2018-10-06T04:31:02.446Z,3.67
2018-10-06T04:33:30.878Z,3.43
2018-10-06T04:35:59.291Z,3.83
2018-10-06T04:38:27.730Z,4.27
2018-10-06T04:40:56.142Z,4.50
2018-10-06T04:43:24.560Z,3.97
2018-10-06T04:45:53.002Z,2.70
2018-10-06T04:48:21.434Z,3.63
2018-10-06T04:50:49.825Z,4.83
2018-10-06T04:53:18.307Z,3.00
2018-10-06T04:55:46.677Z,3.30
2018-10-06T04:58:15.063Z,4.17
2018-10-06T05:00:43.474Z,3.87
2018-10-06T05:03:11.897Z,3.63
2018-10-06T05:05:40.306Z,4.13
2018-10-06T05:08:08.686Z,3.50
2018-10-06T05:10:37.126Z,4.23
2018-10-06T05:13:05.606Z,4.87
2018-10-06T05:15:34.034Z,4.57
2018-10-06T05:18:02.426Z,3.87
2018-10-06T05:20:30.847Z,4.17
2018-10-06T05:22:59.236Z,4.70
2018-10-06T05:25:27.661Z,3.57
2018-10-06T05:27:56.076Z,3.50
2018-10-06T05:30:24.507Z,3.77
2018-10-06T05:32:52.897Z,4.37
2018-10-06T05:35:21.321Z,3.77
2018-10-06T05:37:49.729Z,3.70
2018-10-06T05:40:18.157Z,3.43
2018-10-06T05:42:46.924Z,3.73
2018-10-06T05:45:15.503Z,3.20
2018-10-06T05:47:43.902Z,3.23
2018-10-06T05:50:12.302Z,3.10
2018-10-06T05:52:40.746Z,4.87
2018-10-06T05:55:09.165Z,4.77
2018-10-06T05:57:37.603Z,3.63
2018-10-06T06:00:06.066Z,5.90
2018-10-06T06:02:34.498Z,3.30
2018-10-06T06:05:03.622Z,4.13
2018-10-06T06:07:32.101Z,3.93
2018-10-06T06:10:00.545Z,3.90
2018-10-06T06:12:28.975Z,4.30
2018-10-06T06:14:57.454Z,4.77
2018-10-06T06:17:25.865Z,4.03
2018-10-06T06:19:54.245Z,3.40
2018-10-06T06:22:22.694Z,3.43
2018-10-06T06:24:51.090Z,4.10
2018-10-06T06:27:19.519Z,4.07
2018-10-06T06:29:47.907Z,5.47
2018-10-06T06:32:16.365Z,4.07
2018-10-06T06:34:44.734Z,3.20
2018-10-06T06:37:13.172Z,4.30
2018-10-06T06:39:41.574Z,3.53
2018-10-06T06:42:10.095Z,4.47
2018-10-06T06:44:38.722Z,4.73
2018-10-06T06:47:07.485Z,5.63
2018-10-06T06:49:36.023Z,6.63
2018-10-06T06:52:05.503Z,3.90
2018-10-06T06:54:34.054Z,3.80
2018-10-06T06:57:03.066Z,5.30
2018-10-06T06:59:31.490Z,4.43
2018-10-06T07:01:59.893Z,6.63
2018-10-06T07:04:28.340Z,4.23
2018-10-06T07:06:56.747Z,6.17
2018-10-06T07:09:25.172Z,4.43
2018-10-06T07:11:53.598Z,5.67
2018-10-06T07:14:22.118Z,6.13
2018-10-06T07:16:50.526Z,3.37
2018-10-06T07:19:18.950Z,4.80
2018-10-06T07:21:47.361Z,3.83
2018-10-06T07:24:15.786Z,5.73
2018-10-06T07:26:44.186Z,4.53
2018-10-06T07:29:12.630Z,6.70
2018-10-06T07:31:41.021Z,5.57
2018-10-06T07:34:09.451Z,5.37
2018-10-06T07:36:37.838Z,5.70
2018-10-06T07:39:07.294Z,8.23
2018-10-06T07:41:35.690Z,5.73
2018-10-06T07:44:04.169Z,7.50
2018-10-06T07:46:32.610Z,8.47
2018-10-06T07:49:01.003Z,4.63
2018-10-06T07:51:29.426Z,5.90
2018-10-06T07:53:57.814Z,6.33
2018-10-06T07:56:26.242Z,6.43
2018-10-06T07:58:54.647Z,7.97
2018-10-06T08:01:23.091Z,4.70
2018-10-06T08:03:51.482Z,7.77
2018-10-06T08:06:19.949Z,5.30
2018-10-06T08:08:48.354Z,7.40
2018-10-06T08:11:16.786Z,4.57
2018-10-06T08:13:45.214Z,4.70
2018-10-06T08:16:13.633Z,7.17
2018-10-06T08:18:42.022Z,7.47
2018-10-06T08:21:10.495Z,6.80
2018-10-06T08:23:38.898Z,5.40
2018-10-06T08:26:07.366Z,4.97
2018-10-06T08:28:35.779Z,3.80
2018-10-06T08:31:04.564Z,5.77
2018-10-06T08:33:33.002Z,6.40
2018-10-06T08:36:01.423Z,5.27
2018-10-06T08:38:29.894Z,4.13
2018-10-06T08:40:59.085Z,7.47
2018-10-06T08:43:27.533Z,5.93
2018-10-06T08:45:56.172Z,5.27
2018-10-06T08:48:24.639Z,4.80
2018-10-06T08:50:53.058Z,6.73
2018-10-06T08:53:21.498Z,4.97
2018-10-06T08:55:49.947Z,4.80
2018-10-06T08:58:18.379Z,5.27
2018-10-06T09:00:49.158Z,4.67
2018-10-06T09:03:17.637Z,6.17
2018-10-06T09:05:46.062Z,4.97
2018-10-06T09:08:14.877Z,4.00
2018-10-06T09:10:43.938Z,4.37
2018-10-06T09:13:12.462Z,7.30
2018-10-06T09:15:41.040Z,4.90
2018-10-06T09:18:09.595Z,4.73
2018-10-06T09:20:38.072Z,7.00
2018-10-06T09:23:06.562Z,5.50
2018-10-06T09:25:35.090Z,5.17
2018-10-06T09:28:03.666Z,5.30
2018-10-06T09:30:32.138Z,4.90
2018-10-06T09:33:00.562Z,8.87
2018-10-06T09:35:29.021Z,4.13
2018-10-06T09:37:57.433Z,4.67
2018-10-06T09:40:25.945Z,5.53
2018-10-06T09:42:54.480Z,4.40
2018-10-06T09:45:22.966Z,4.90
2018-10-06T09:47:51.509Z,4.50
2018-10-06T09:50:20.259Z,3.70
2018-10-06T09:52:49.210Z,5.13
2018-10-06T09:55:17.678Z,5.13
2018-10-06T09:57:46.193Z,5.20
2018-10-06T10:00:15.273Z,6.80
2018-10-06T10:02:48.885Z,5.60
2018-10-06T10:05:22.619Z,5.30
2018-10-06T10:07:52.410Z,6.00
2018-10-06T10:10:20.842Z,6.37
2018-10-06T10:12:49.424Z,4.80
2018-10-06T10:15:17.849Z,4.73
2018-10-06T10:17:46.720Z,4.00
2018-10-06T10:20:15.062Z,5.27
2018-10-06T10:22:43.591Z,4.57
2018-10-06T10:25:11.969Z,6.37
2018-10-06T10:27:40.422Z,5.50
2018-10-06T10:30:08.886Z,5.23
2018-10-06T10:32:37.355Z,7.00
2018-10-06T10:35:05.998Z,5.50
2018-10-06T10:37:34.589Z,6.40
2018-10-06T10:40:03.773Z,5.57
2018-10-06T10:42:32.193Z,6.40
2018-10-06T10:45:00.598Z,4.87
2018-10-06T10:47:29.010Z,4.70
2018-10-06T10:49:57.454Z,4.40
2018-10-06T10:52:25.861Z,5.00
2018-10-06T10:54:54.244Z,4.20
2018-10-06T10:57:23.858Z,3.47
2018-10-06T10:59:52.486Z,4.53
2018-10-06T11:02:20.766Z,4.00
2018-10-06T11:04:49.314Z,3.40
2018-10-06T11:07:17.717Z,4.83
2018-10-06T11:09:46.146Z,3.70
2018-10-06T11:12:14.583Z,5.20
2018-10-06T11:14:42.999Z,3.23
2018-10-06T11:17:11.417Z,3.27
2018-10-06T11:19:39.842Z,2.70
2018-10-06T11:22:08.267Z,3.30
2018-10-06T11:24:36.894Z,3.77
2018-10-06T11:27:05.278Z,3.02
2018-10-06T11:29:33.716Z,2.75
2018-10-06T11:32:02.954Z,2.80
2018-10-06T11:34:31.373Z,2.75
2018-10-06T11:36:59.749Z,3.35
2018-10-06T11:39:28.166Z,5.83
2018-10-06T11:41:56.554Z,2.60
2018-10-06T11:44:24.969Z,2.70
2018-10-06T11:46:53.350Z,2.50
2018-10-06T11:49:21.766Z,3.47
2018-10-06T11:51:50.161Z,2.67
2018-10-06T11:54:18.570Z,2.40
2018-10-06T11:56:46.945Z,3.98
2018-10-06T11:59:15.893Z,3.05
2018-10-06T12:01:44.277Z,3.17
2018-10-06T12:04:12.749Z,4.58
2018-10-06T12:06:41.134Z,2.92
2018-10-06T12:09:09.895Z,3.50
2018-10-06T12:11:38.434Z,3.17
2018-10-06T12:14:06.990Z,3.87
2018-10-06T12:16:35.466Z,5.97
2018-10-06T12:19:04.185Z,3.77
2018-10-06T12:21:32.642Z,3.30
2018-10-06T12:24:01.025Z,2.98
2018-10-06T12:26:29.459Z,2.22
2018-10-06T12:28:57.837Z,2.65
2018-10-06T12:31:26.278Z,3.65
2018-10-06T12:33:54.669Z,2.83
2018-10-06T12:36:23.089Z,2.75
2018-10-06T12:38:51.494Z,3.00
2018-10-06T12:41:19.953Z,2.40
2018-10-06T12:43:48.330Z,4.15
2018-10-06T12:46:16.762Z,3.92
2018-10-06T12:48:45.145Z,3.37
2018-10-06T12:51:13.586Z,2.30
2018-10-06T12:53:41.996Z,2.42
2018-10-06T12:56:10.410Z,2.72
2018-10-06T12:58:38.778Z,2.77
2018-10-06T13:01:07.548Z,2.02
2018-10-06T13:03:35.949Z,2.20
2018-10-06T13:06:04.452Z,2.42
2018-10-06T13:08:32.898Z,3.62
2018-10-06T13:11:01.358Z,3.55
2018-10-06T13:13:29.790Z,4.47
2018-10-06T13:15:58.209Z,2.58
2018-10-06T13:18:26.680Z,2.25
2018-10-06T13:20:55.098Z,2.22
2018-10-06T13:23:23.605Z,3.22
2018-10-06T13:25:52.114Z,4.55
2018-10-06T13:28:20.561Z,5.80
2018-10-06T13:30:48.978Z,2.72
2018-10-06T13:33:17.431Z,3.80
2018-10-06T13:35:45.895Z,2.75
2018-10-06T13:38:14.451Z,2.75
2018-10-06T13:40:42.885Z,3.22
2018-10-06T13:43:11.331Z,3.47
2018-10-06T13:45:39.767Z,2.37
2018-10-06T13:48:08.254Z,3.15
2018-10-06T13:50:36.678Z,2.40
2018-10-06T13:53:05.137Z,2.55
2018-10-06T13:55:33.565Z,2.47
2018-10-06T13:58:02.067Z,2.80
2018-10-06T14:00:30.578Z,2.33
2018-10-06T14:02:58.981Z,4.22
2018-10-06T14:05:27.473Z,2.37
2018-10-06T14:07:55.878Z,3.20
2018-10-06T14:10:24.452Z,2.87
2018-10-06T14:12:52.894Z,2.92
2018-10-06T14:15:21.331Z,2.05
2018-10-06T14:17:49.726Z,2.62
2018-10-06T14:20:18.161Z,4.40
2018-10-06T14:22:46.821Z,2.95
2018-10-06T14:25:15.318Z,2.37
2018-10-06T14:27:44.123Z,2.42
2018-10-06T14:30:12.934Z,5.15
2018-10-06T14:32:41.570Z,4.67
2018-10-06T14:35:10.111Z,3.52
2018-10-06T14:37:38.662Z,3.05
2018-10-06T14:40:07.153Z,2.92
2018-10-06T14:42:35.646Z,3.30
2018-10-06T14:45:04.476Z,3.02
2018-10-06T14:47:33.239Z,3.75
2018-10-06T14:50:02.150Z,2.72
2018-10-06T14:52:30.699Z,4.33
2018-10-06T14:54:59.205Z,2.47
2018-10-06T14:57:27.888Z,3.58
2018-10-06T14:59:56.327Z,2.70
2018-10-06T15:02:25.249Z,2.87
2018-10-06T15:04:53.735Z,3.05
2018-10-06T15:07:22.266Z,4.05
2018-10-06T15:09:50.796Z,3.70
2018-10-06T15:12:19.311Z,3.98
2018-10-06T15:14:48.250Z,4.28
2018-10-06T15:17:17.172Z,3.47
2018-10-06T15:19:46.026Z,3.22
2018-10-06T15:22:14.831Z,4.30
2018-10-06T15:24:43.998Z,2.87
2018-10-06T15:27:12.458Z,2.62
2018-10-06T15:29:41.010Z,3.05
2018-10-06T15:32:09.470Z,4.08
2018-10-06T15:34:37.996Z,3.90
2018-10-06T15:37:06.590Z,3.47
2018-10-06T15:39:35.053Z,3.98
2018-10-06T15:42:03.887Z,5.22
2018-10-06T15:44:32.781Z,3.90
2018-10-06T15:47:02.022Z,4.12
2018-10-06T15:49:31.119Z,4.17
2018-10-06T15:51:59.696Z,4.22
2018-10-06T15:54:28.191Z,4.45
2018-10-06T15:56:56.715Z,4.87
2018-10-06T15:59:25.857Z,4.70
2018-10-06T16:01:54.391Z,4.47
2018-10-06T16:04:22.972Z,4.65
2018-10-06T16:06:52.011Z,4.65
2018-10-06T16:09:20.622Z,6.80
2018-10-06T16:11:49.414Z,7.12
2018-10-06T16:14:17.896Z,5.40
2018-10-06T16:16:46.914Z,8.03
2018-10-06T16:19:15.598Z,14.10
2018-10-06T16:21:45.510Z,9.40
2018-10-06T16:24:14.896Z,6.47
2018-10-06T16:26:44.453Z,8.13
2018-10-06T16:29:13.038Z,6.42
2018-10-06T16:31:41.838Z,7.28
2018-10-06T16:34:10.429Z,5.40
2018-10-06T16:36:38.947Z,5.08
2018-10-06T16:39:08.402Z,6.87
2018-10-06T16:41:36.900Z,5.62
2018-10-06T16:44:05.803Z,8.93
2018-10-06T16:46:34.371Z,5.25
2018-10-06T16:49:03.690Z,6.25
2018-10-06T16:51:32.343Z,6.78
2018-10-06T16:54:00.918Z,6.70
2018-10-06T16:56:29.715Z,6.08
2018-10-06T16:58:58.677Z,5.67
2018-10-06T17:01:27.322Z,7.12
2018-10-06T17:03:55.848Z,5.62
2018-10-06T17:06:24.536Z,5.08
2018-10-06T17:08:54.212Z,7.92
2018-10-06T17:11:23.439Z,5.85
2018-10-06T17:13:52.840Z,6.35
2018-10-06T17:16:21.402Z,6.12
2018-10-06T17:18:49.951Z,7.42
2018-10-06T17:21:18.628Z,5.63
2018-10-06T17:23:47.426Z,5.73
2018-10-06T17:26:16.087Z,6.23
2018-10-06T17:28:44.586Z,5.83
2018-10-06T17:31:13.186Z,7.33
2018-10-06T17:33:41.632Z,5.90
2018-10-06T17:36:10.115Z,7.27
2018-10-06T17:38:38.620Z,9.87
2018-10-06T17:41:07.112Z,6.80
2018-10-06T17:43:35.681Z,6.57
2018-10-06T17:46:04.263Z,7.03
2018-10-06T17:48:32.750Z,17.83
2018-10-06T17:51:01.539Z,8.43
2018-10-06T17:53:30.479Z,11.63
2018-10-06T17:55:58.967Z,6.93
2018-10-06T17:58:27.587Z,6.20
2018-10-06T18:00:56.492Z,5.37
2018-10-06T18:03:25.355Z,5.37
2018-10-06T18:05:53.802Z,5.63
2018-10-06T18:08:22.315Z,6.07
2018-10-06T18:10:50.817Z,5.83
2018-10-06T18:13:19.370Z,7.23
2018-10-06T18:15:47.935Z,6.20
2018-10-06T18:18:17.795Z,7.27
2018-10-06T18:20:47.915Z,6.90
2018-10-06T18:23:16.559Z,6.70
2018-10-06T18:25:45.982Z,12.73
2018-10-06T18:28:14.618Z,9.60
2018-10-06T18:30:43.914Z,9.30
2018-10-06T18:33:12.855Z,5.70
2018-10-06T18:35:41.813Z,6.13
2018-10-06T18:38:16.709Z,8.10
2018-10-06T18:40:45.139Z,7.77
2018-10-06T18:43:13.695Z,7.17
2018-10-06T18:45:42.284Z,8.47
2018-10-06T18:48:10.715Z,10.57
2018-10-06T18:50:39.166Z,9.17
2018-10-06T18:53:08.474Z,10.70
2018-10-06T18:55:37.021Z,12.77
2018-10-06T18:58:05.464Z,24.80
2018-10-06T19:00:33.918Z,10.50
2018-10-06T19:03:02.658Z,9.57
2018-10-06T19:05:31.131Z,6.07
2018-10-06T19:07:59.548Z,7.03
2018-10-06T19:10:28.127Z,5.63
2018-10-06T19:12:56.527Z,5.47
2018-10-06T19:15:25.389Z,5.07
2018-10-06T19:17:54.480Z,6.30
2018-10-06T19:20:24.069Z,5.33
2018-10-06T19:22:52.502Z,5.40
2018-10-06T19:25:20.925Z,8.03
2018-10-06T19:27:49.442Z,8.70
2018-10-06T19:30:17.990Z,7.77
2018-10-06T19:32:46.408Z,5.63
2018-10-06T19:35:21.649Z,6.47
2018-10-06T19:37:50.166Z,6.23
2018-10-06T19:40:18.639Z,6.80
2018-10-06T19:42:47.338Z,6.20
2018-10-06T19:45:16.142Z,5.37
2018-10-06T19:47:45.554Z,6.27
2018-10-06T19:50:13.971Z,6.63
2018-10-06T19:52:42.534Z,5.43
2018-10-06T19:55:11.042Z,6.13
2018-10-06T19:57:39.469Z,6.40
2018-10-06T20:00:08.146Z,7.90
2018-10-06T20:02:37.087Z,7.10
2018-10-06T20:05:05.554Z,7.07
2018-10-06T20:07:34.376Z,6.30
2018-10-06T20:10:02.803Z,6.53
2018-10-06T20:12:31.406Z,8.00
2018-10-06T20:14:59.963Z,6.87
2018-10-06T20:17:28.575Z,6.90
2018-10-06T20:19:57.361Z,5.13
2018-10-06T20:22:26.387Z,5.23
2018-10-06T20:24:55.222Z,5.60
2018-10-06T20:27:23.686Z,5.10
2018-10-06T20:29:52.990Z,5.67
2018-10-06T20:32:21.506Z,6.20
2018-10-06T20:34:49.917Z,6.40
2018-10-06T20:37:18.471Z,6.23
2018-10-06T20:39:46.948Z,6.60
2018-10-06T20:42:16.374Z,7.30
2018-10-06T20:44:44.867Z,9.23
2018-10-06T20:47:13.375Z,10.87
2018-10-06T20:49:41.846Z,9.23
2018-10-06T20:52:10.372Z,8.50
2018-10-06T20:54:38.826Z,9.40
2018-10-06T20:57:07.254Z,9.37
2018-10-06T20:59:35.721Z,8.63
2018-10-06T21:02:04.287Z,7.33
2018-10-06T21:04:32.724Z,8.93
2018-10-06T21:07:01.162Z,8.67
2018-10-06T21:09:29.919Z,9.00
2018-10-06T21:11:58.386Z,12.63
2018-10-06T21:14:26.849Z,10.60
2018-10-06T21:16:55.308Z,9.03
2018-10-06T21:19:23.762Z,8.73
2018-10-06T21:21:52.220Z,8.57
2018-10-06T21:24:20.687Z,8.43
2018-10-06T21:26:49.099Z,7.60
2018-10-06T21:29:17.669Z,6.93
2018-10-06T21:31:46.006Z,5.80
2018-10-06T21:34:14.446Z,6.93
2018-10-06T21:36:42.923Z,5.23
2018-10-06T21:39:11.366Z,7.20
2018-10-06T21:41:39.823Z,5.37
2018-10-06T21:44:08.258Z,5.33
2018-10-06T21:46:36.709Z,6.13
2018-10-06T21:49:05.218Z,5.43
2018-10-06T21:51:33.693Z,6.60
2018-10-06T21:54:02.142Z,6.17
2018-10-06T21:56:30.594Z,6.93
2018-10-06T21:58:59.019Z,5.47
2018-10-06T22:01:27.478Z,7.00
2018-10-06T22:03:55.918Z,5.60
2018-10-06T22:06:24.458Z,5.33
2018-10-06T22:08:54.322Z,6.37
2018-10-06T22:11:22.778Z,5.30
2018-10-06T22:13:51.249Z,4.90
2018-10-06T22:16:20.565Z,4.40
2018-10-06T22:18:49.766Z,6.10
2018-10-06T22:21:18.205Z,4.10
2018-10-06T22:23:46.601Z,4.63
2018-10-06T22:26:15.026Z,6.33
2018-10-06T22:28:43.418Z,12.10
2018-10-06T22:31:12.446Z,7.83
2018-10-06T22:33:40.855Z,8.23
2018-10-06T22:36:09.273Z,7.50
2018-10-06T22:38:37.762Z,7.00
2018-10-06T22:41:06.246Z,8.33
2018-10-06T22:43:34.802Z,6.70
2018-10-06T22:46:03.783Z,6.23
2018-10-06T22:48:32.461Z,7.80
2018-10-06T22:51:00.953Z,8.00
2018-10-06T22:53:29.413Z,7.70
2018-10-06T22:55:57.938Z,9.63
2018-10-06T22:58:26.390Z,8.10
2018-10-06T23:00:55.211Z,8.17
2018-10-06T23:03:23.760Z,9.47
2018-10-06T23:05:52.413Z,9.47
2018-10-06T23:08:21.650Z,8.30
2018-10-06T23:10:50.214Z,10.17
2018-10-06T23:13:18.681Z,10.37
2018-10-06T23:15:47.151Z,10.57
2018-10-06T23:18:15.642Z,10.20
2018-10-06T23:20:44.083Z,10.87
2018-10-06T23:23:12.606Z,8.70
2018-10-06T23:25:41.098Z,7.07
2018-10-06T23:28:09.654Z,7.10
2018-10-06T23:30:38.296Z,6.27
2018-10-06T23:33:06.846Z,7.87
2018-10-06T23:35:35.881Z,6.43
2018-10-06T23:38:04.327Z,8.23
2018-10-06T23:40:32.898Z,6.50
2018-10-06T23:43:02.174Z,5.80
2018-10-06T23:45:30.661Z,7.03
2018-10-06T23:47:59.089Z,5.13
2018-10-06T23:50:28.227Z,5.37
2018-10-06T23:52:56.772Z,5.47
2018-10-06T23:55:25.241Z,5.23
2018-10-06T23:58:04.149Z,5.90
